Time;durP1;ratioP1;P1;durP2;ratioP2;P2;SDS_P1;SDS_P2;PMS_P1;PMS_P2;Temp;Humidity;BMP_temperature;BMP_pressure;BME280_temperature;BME280_humidity;BME280_pressure;Samples;Min_cycle;Max_cycle;Signal;HPM_P1;HPM_P2
2022/08/20 00:00:59;;;;;;;;;;;19.30;99.90;;;;;;5027569;28;19929;-71
2022/08/20 00:03:27;;;;;;;;;;;19.30;99.90;;;;;;5002101;28;20344;-72
2022/08/20 00:05:55;;;;;;;;;;;19.20;99.90;;;;;;5025282;28;19925;-72
2022/08/20 00:08:23;;;;;;;;;;;19.20;99.90;;;;;;5021236;28;19926;-73
2022/08/20 00:10:50;;;;;;;;;;;19.20;99.90;;;;;;5022035;28;19972;-72
2022/08/20 00:13:20;;;;;;;;;;;19.20;99.90;;;;;;5029830;28;19929;-73
2022/08/20 00:15:47;;;;;;;;;;;19.20;99.90;;;;;;5030581;28;20357;-72
2022/08/20 00:18:14;;;;;;;;;;;19.20;99.90;;;;;;5029122;28;19953;-70
2022/08/20 00:20:42;;;;;;;;;;;19.20;99.90;;;;;;5037464;28;20002;-72
2022/08/20 00:23:11;;;;;;;;;;;19.20;99.90;;;;;;5033449;28;19932;-72
2022/08/20 00:25:38;;;;;;;;;;;19.20;99.90;;;;;;5034833;28;19937;-72
2022/08/20 00:28:06;;;;;;;;;;;19.10;99.90;;;;;;5019271;28;19933;-73
2022/08/20 00:30:35;;;;;;;;;;;19.10;99.90;;;;;;5023452;28;19925;-72
2022/08/20 00:33:04;;;;;;;;;;;19.10;99.90;;;;;;5035944;28;19933;-70
2022/08/20 00:35:33;;;;;;;;;;;19.10;99.90;;;;;;5012514;28;19925;-71
2022/08/20 00:37:59;;;;;;;;;;;19.10;99.90;;;;;;5024464;28;19987;-71
2022/08/20 00:40:28;;;;;;;;;;;19.10;99.90;;;;;;5029776;28;20352;-71
2022/08/20 00:42:57;;;;;;;;;;;19.10;99.90;;;;;;5032352;28;19960;-72
2022/08/20 00:45:25;;;;;;;;;;;19.00;99.90;;;;;;5031553;28;19930;-71
2022/08/20 00:47:54;;;;;;;;;;;19.00;99.90;;;;;;5024333;28;19925;-71
2022/08/20 00:50:32;;;;;;;;;;;19.00;99.90;;;;;;5029336;28;19931;-71
2022/08/20 00:53:01;;;;;;;;;;;19.00;99.90;;;;;;5025763;28;19926;-71
2022/08/20 00:55:28;;;;;;;;;;;19.00;99.90;;;;;;5029296;28;19930;-72
2022/08/20 00:57:57;;;;;;;;;;;18.90;99.90;;;;;;5020239;28;20464;-71
2022/08/20 01:00:25;;;;;;;;;;;18.90;99.90;;;;;;5024157;28;19932;-71
2022/08/20 01:02:53;;;;;;;;;;;18.80;99.90;;;;;;5023584;28;19925;-71
2022/08/20 01:05:22;;;;;;;;;;;18.80;99.90;;;;;;5028085;28;19929;-71
2022/08/20 01:07:52;;;;;;;;;;;18.80;99.90;;;;;;5021019;28;19929;-71
2022/08/20 01:10:21;;;;;;;;;;;18.80;99.90;;;;;;5030837;28;19942;-72
2022/08/20 01:12:49;;;;;;;;;;;18.90;99.90;;;;;;5030385;28;20400;-71
2022/08/20 01:15:17;;;;;;;;;;;18.90;99.90;;;;;;5037542;28;19976;-71
2022/08/20 01:17:45;;;;;;;;;;;18.90;99.90;;;;;;5030895;28;20344;-71
2022/08/20 01:20:17;;;;;;;;;;;18.90;99.90;;;;;;5015669;28;20463;-71
2022/08/20 01:25:33;;;;;;;;;;;18.80;99.90;;;;;;5038223;28;19921;-71
2022/08/20 01:28:01;;;;;;;;;;;18.80;99.90;;;;;;5027260;28;19980;-72
2022/08/20 01:30:28;;;;;;;;;;;18.70;99.90;;;;;;5007111;28;19933;-72
2022/08/20 01:32:56;;;;;;;;;;;18.80;99.90;;;;;;5024543;28;19933;-71
2022/08/20 01:35:23;;;;;;;;;;;18.70;99.90;;;;;;5011598;28;19925;-72
2022/08/20 01:37:50;;;;;;;;;;;18.80;99.90;;;;;;5028173;28;19934;-72
2022/08/20 01:40:21;;;;;;;;;;;18.80;99.90;;;;;;5016120;28;19929;-72
2022/08/20 01:42:48;;;;;;;;;;;18.80;99.90;;;;;;5017087;28;19981;-71
2022/08/20 01:45:16;;;;;;;;;;;18.90;99.90;;;;;;5028124;28;20399;-72
2022/08/20 01:47:43;;;;;;;;;;;18.90;99.90;;;;;;5002385;28;19930;-72
2022/08/20 01:50:17;;;;;;;;;;;18.90;99.90;;;;;;5028042;28;19925;-70
2022/08/20 01:52:50;;;;;;;;;;;19.00;99.90;;;;;;5011366;28;19932;-72
2022/08/20 01:55:17;;;;;;;;;;;19.00;99.90;;;;;;5019077;28;19930;-72
2022/08/20 01:57:44;;;;;;;;;;;19.00;99.90;;;;;;5027977;28;19925;-72
2022/08/20 02:00:14;;;;;;;;;;;19.10;99.90;;;;;;5018160;28;19930;-71
2022/08/20 02:02:42;;;;;;;;;;;19.10;99.90;;;;;;4994355;28;20444;-71
2022/08/20 02:05:10;;;;;;;;;;;19.20;99.90;;;;;;5023303;28;19941;-72
2022/08/20 02:07:37;;;;;;;;;;;19.20;99.90;;;;;;5032453;28;19925;-71
2022/08/20 02:10:05;;;;;;;;;;;19.30;99.90;;;;;;5019255;28;19926;-72
2022/08/20 02:12:33;;;;;;;;;;;19.20;99.90;;;;;;5020283;28;19937;-71
2022/08/20 02:15:01;;;;;;;;;;;19.30;99.90;;;;;;5020489;28;19929;-72
2022/08/20 02:17:28;;;;;;;;;;;19.30;99.90;;;;;;5027553;28;19925;-71
2022/08/20 02:19:58;;;;;;;;;;;19.30;99.90;;;;;;5016362;28;20285;-71
2022/08/20 02:22:26;;;;;;;;;;;19.30;99.90;;;;;;5013897;28;20293;-71
2022/08/20 02:24:53;;;;;;;;;;;19.30;99.90;;;;;;5026928;28;19925;-71
2022/08/20 02:27:22;;;;;;;;;;;19.20;99.90;;;;;;5019542;28;19941;-71
2022/08/20 02:29:50;;;;;;;;;;;19.20;99.90;;;;;;5014206;28;19930;-71
2022/08/20 02:32:16;;;;;;;;;;;19.20;99.90;;;;;;5021099;28;19929;-71
2022/08/20 02:34:43;;;;;;;;;;;19.10;99.90;;;;;;5010223;28;20460;-71
2022/08/20 02:37:13;;;;;;;;;;;19.10;99.90;;;;;;5009768;28;19925;-71
2022/08/20 02:39:40;;;;;;;;;;;19.20;99.90;;;;;;5009705;28;20449;-71
2022/08/20 02:42:08;;;;;;;;;;;19.10;99.90;;;;;;5010987;28;19949;-71
2022/08/20 02:44:35;;;;;;;;;;;19.20;99.90;;;;;;5009304;28;19971;-72
2022/08/20 02:47:02;;;;;;;;;;;19.20;99.90;;;;;;5023108;28;20025;-71
2022/08/20 02:49:29;;;;;;;;;;;19.30;99.90;;;;;;5005310;28;20347;-71
2022/08/20 02:51:56;;;;;;;;;;;19.30;99.90;;;;;;5010554;28;19932;-71
2022/08/20 02:54:24;;;;;;;;;;;19.20;99.90;;;;;;5028689;28;19926;-71
2022/08/20 02:56:51;;;;;;;;;;;19.10;99.90;;;;;;5004304;28;19925;-71
2022/08/20 02:59:18;;;;;;;;;;;19.10;99.90;;;;;;5025045;28;19925;-71
2022/08/20 03:01:45;;;;;;;;;;;19.10;99.90;;;;;;5015817;28;20008;-71
2022/08/20 03:04:11;;;;;;;;;;;19.20;99.90;;;;;;5002749;28;19984;-71
2022/08/20 03:06:38;;;;;;;;;;;19.10;99.90;;;;;;5008324;28;19932;-71
2022/08/20 03:09:07;;;;;;;;;;;19.10;99.90;;;;;;5024553;28;20278;-70
2022/08/20 03:11:38;;;;;;;;;;;19.10;99.90;;;;;;5025258;28;19929;-71
2022/08/20 03:14:05;;;;;;;;;;;19.10;99.90;;;;;;5019007;28;19925;-71
2022/08/20 03:16:32;;;;;;;;;;;19.00;99.90;;;;;;5019161;28;19932;-70
2022/08/20 03:18:58;;;;;;;;;;;19.00;99.90;;;;;;5019035;28;19925;-70
2022/08/20 03:21:25;;;;;;;;;;;19.00;99.90;;;;;;5020536;28;19986;-70
2022/08/20 03:23:52;;;;;;;;;;;19.00;99.90;;;;;;5003556;28;19925;-70
2022/08/20 03:26:19;;;;;;;;;;;19.00;99.90;;;;;;5026120;28;20392;-70
2022/08/20 03:28:47;;;;;;;;;;;19.00;99.90;;;;;;5004046;28;19936;-70
2022/08/20 03:31:14;;;;;;;;;;;19.00;99.90;;;;;;5008317;28;20346;-71
2022/08/20 03:33:41;;;;;;;;;;;18.90;99.90;;;;;;5005915;28;20405;-71
2022/08/20 03:36:08;;;;;;;;;;;19.00;99.90;;;;;;5008295;28;19992;-71
2022/08/20 03:38:35;;;;;;;;;;;19.00;99.90;;;;;;5020133;28;19940;-71
2022/08/20 03:41:03;;;;;;;;;;;19.00;99.90;;;;;;5022180;28;20049;-70
2022/08/20 03:43:30;;;;;;;;;;;19.00;99.90;;;;;;5028591;28;20306;-71
2022/08/20 03:45:58;;;;;;;;;;;19.00;99.90;;;;;;5023006;28;19930;-71
2022/08/20 03:48:25;;;;;;;;;;;19.00;99.90;;;;;;5022043;28;19929;-71
2022/08/20 03:50:52;;;;;;;;;;;18.90;99.90;;;;;;5035838;28;19929;-71
2022/08/20 03:53:19;;;;;;;;;;;19.00;99.90;;;;;;5023115;28;19949;-72
2022/08/20 03:55:46;;;;;;;;;;;19.00;99.90;;;;;;5017197;28;19971;-71
2022/08/20 03:58:14;;;;;;;;;;;18.90;99.90;;;;;;5012259;28;20001;-70
2022/08/20 04:00:42;;;;;;;;;;;18.90;99.90;;;;;;5019799;28;19929;-70
2022/08/20 04:03:10;;;;;;;;;;;18.80;99.90;;;;;;5024933;28;19929;-71
2022/08/20 04:05:39;;;;;;;;;;;18.80;99.90;;;;;;5021085;28;19932;-71
2022/08/20 04:08:07;;;;;;;;;;;18.70;99.90;;;;;;5015050;28;19925;-71
2022/08/20 04:10:34;;;;;;;;;;;18.70;99.90;;;;;;5026751;28;20348;-71
2022/08/20 04:13:00;;;;;;;;;;;18.70;99.90;;;;;;5013261;28;19961;-71
2022/08/20 04:15:27;;;;;;;;;;;18.60;99.90;;;;;;5023039;28;19937;-70
2022/08/20 04:17:54;;;;;;;;;;;18.60;99.90;;;;;;5029110;28;19975;-71
2022/08/20 04:20:24;;;;;;;;;;;18.60;99.90;;;;;;5013757;28;19930;-70
2022/08/20 04:22:51;;;;;;;;;;;18.60;99.90;;;;;;5033964;28;20025;-70
2022/08/20 04:25:18;;;;;;;;;;;18.70;99.90;;;;;;5022509;28;19929;-71
2022/08/20 04:27:45;;;;;;;;;;;18.70;99.90;;;;;;5026570;28;20385;-68
2022/08/20 04:30:13;;;;;;;;;;;18.70;99.90;;;;;;5011781;28;19925;-71
2022/08/20 04:32:40;;;;;;;;;;;18.70;99.90;;;;;;5029142;28;20384;-70
2022/08/20 04:35:10;;;;;;;;;;;18.70;99.90;;;;;;5012382;28;20384;-70
2022/08/20 04:37:39;;;;;;;;;;;18.70;99.90;;;;;;5015996;28;19925;-71
2022/08/20 04:42:51;;;;;;;;;;;18.60;99.90;;;;;;5027536;28;19925;-72
2022/08/20 04:45:18;;;;;;;;;;;18.60;99.90;;;;;;5025493;28;19979;-71
2022/08/20 04:47:45;;;;;;;;;;;18.50;99.90;;;;;;5020743;28;20394;-72
2022/08/20 04:50:13;;;;;;;;;;;18.50;99.90;;;;;;5031226;28;19965;-72
2022/08/20 04:52:41;;;;;;;;;;;18.40;99.90;;;;;;5017539;28;19972;-72
2022/08/20 04:55:09;;;;;;;;;;;18.40;99.90;;;;;;5008696;28;19925;-72
2022/08/20 04:57:37;;;;;;;;;;;18.30;99.90;;;;;;5016970;28;20444;-71
2022/08/20 05:00:07;;;;;;;;;;;18.30;99.90;;;;;;5005357;28;19926;-72
2022/08/20 05:02:34;;;;;;;;;;;18.30;99.90;;;;;;5015352;28;19925;-72
2022/08/20 05:05:03;;;;;;;;;;;18.20;99.90;;;;;;5010346;28;20122;-71
2022/08/20 05:07:30;;;;;;;;;;;18.20;99.90;;;;;;5017437;28;19929;-69
2022/08/20 05:09:58;;;;;;;;;;;18.20;99.90;;;;;;5025014;28;19980;-72
2022/08/20 05:12:25;;;;;;;;;;;18.20;99.90;;;;;;5029013;28;19964;-71
2022/08/20 05:14:53;;;;;;;;;;;18.10;99.90;;;;;;5011638;28;19926;-72
2022/08/20 05:17:22;;;;;;;;;;;18.10;99.90;;;;;;5023905;28;19948;-71
2022/08/20 05:19:51;;;;;;;;;;;18.00;99.90;;;;;;5010353;28;19926;-71
2022/08/20 05:22:18;;;;;;;;;;;18.00;99.90;;;;;;5027334;28;19930;-72
2022/08/20 05:24:45;;;;;;;;;;;18.10;99.90;;;;;;5017448;28;19925;-72
2022/08/20 05:27:13;;;;;;;;;;;18.10;99.90;;;;;;5014240;28;19937;-72
2022/08/20 05:29:40;;;;;;;;;;;18.10;99.90;;;;;;5012058;28;19933;-70
2022/08/20 05:32:07;;;;;;;;;;;18.10;99.90;;;;;;5020715;28;20020;-71
2022/08/20 05:34:34;;;;;;;;;;;18.00;99.90;;;;;;5025950;28;20411;-70
2022/08/20 05:37:03;;;;;;;;;;;18.10;99.90;;;;;;5010458;28;19932;-71
2022/08/20 05:39:30;;;;;;;;;;;18.00;99.90;;;;;;5010120;28;20337;-72
2022/08/20 05:41:58;;;;;;;;;;;17.90;99.90;;;;;;5011485;28;19955;-73
2022/08/20 05:44:26;;;;;;;;;;;17.90;99.90;;;;;;5012089;28;19926;-72
2022/08/20 05:46:53;;;;;;;;;;;18.00;99.90;;;;;;5015966;28;19925;-72
2022/08/20 05:49:20;;;;;;;;;;;17.90;99.90;;;;;;5009387;28;19925;-73
2022/08/20 05:51:48;;;;;;;;;;;17.90;99.90;;;;;;5009857;28;19991;-72
2022/08/20 05:54:15;;;;;;;;;;;17.80;99.90;;;;;;5008372;28;20048;-72
2022/08/20 05:56:42;;;;;;;;;;;17.80;99.90;;;;;;5008306;28;19929;-71
2022/08/20 05:59:09;;;;;;;;;;;17.80;99.90;;;;;;5008102;28;19930;-72
2022/08/20 06:01:38;;;;;;;;;;;17.70;99.90;;;;;;5006444;28;19926;-72
2022/08/20 06:06:49;;;;;;;;;;;17.80;99.90;;;;;;5002754;28;19921;-71
2022/08/20 06:09:17;;;;;;;;;;;17.60;99.90;;;;;;5025869;28;19925;-71
2022/08/20 06:11:44;;;;;;;;;;;17.60;99.90;;;;;;5029258;28;19984;-73
2022/08/20 06:14:10;;;;;;;;;;;17.70;99.90;;;;;;5025260;28;19925;-72
2022/08/20 06:16:39;;;;;;;;;;;17.70;99.90;;;;;;5010279;28;19925;-73
2022/08/20 06:19:06;;;;;;;;;;;17.60;99.90;;;;;;5022246;28;20286;-72
2022/08/20 06:21:32;;;;;;;;;;;17.50;99.90;;;;;;5015369;28;19963;-72
2022/08/20 06:23:59;;;;;;;;;;;17.40;99.90;;;;;;5011757;28;19929;-73
2022/08/20 06:26:26;;;;;;;;;;;17.50;99.90;;;;;;5009285;28;19968;-72
2022/08/20 06:28:53;;;;;;;;;;;17.40;99.90;;;;;;5009304;28;19981;-73
2022/08/20 06:31:20;;;;;;;;;;;17.40;99.90;;;;;;5007092;28;19925;-70
2022/08/20 06:33:48;;;;;;;;;;;17.50;99.90;;;;;;5009626;28;20469;-70
2022/08/20 06:36:15;;;;;;;;;;;17.40;99.90;;;;;;5002850;28;19926;-71
2022/08/20 06:38:42;;;;;;;;;;;17.40;99.90;;;;;;5002811;28;19930;-68
2022/08/20 06:41:09;;;;;;;;;;;17.50;99.90;;;;;;5007849;28;20028;-71
2022/08/20 06:43:35;;;;;;;;;;;17.60;99.90;;;;;;5016750;28;19938;-72
2022/08/20 06:46:02;;;;;;;;;;;17.70;99.90;;;;;;5008179;28;19936;-72
2022/08/20 06:48:29;;;;;;;;;;;17.80;99.90;;;;;;5009920;28;19972;-71
2022/08/20 06:50:58;;;;;;;;;;;17.70;99.90;;;;;;5030707;28;19925;-71
2022/08/20 06:53:25;;;;;;;;;;;17.90;99.90;;;;;;5009491;28;19933;-70
2022/08/20 06:55:53;;;;;;;;;;;18.00;99.90;;;;;;5017227;28;20400;-70
2022/08/20 06:58:21;;;;;;;;;;;18.00;99.90;;;;;;5003338;28;19925;-71
2022/08/20 07:00:47;;;;;;;;;;;18.10;99.90;;;;;;5007942;28;19957;-70
2022/08/20 07:03:15;;;;;;;;;;;18.20;99.90;;;;;;5017689;28;19925;-70
2022/08/20 07:05:42;;;;;;;;;;;18.40;99.90;;;;;;5008845;28;19931;-71
2022/08/20 07:08:12;;;;;;;;;;;18.50;99.90;;;;;;5029763;28;19926;-71
2022/08/20 07:10:40;;;;;;;;;;;18.60;99.90;;;;;;5000537;28;19926;-70
2022/08/20 07:13:08;;;;;;;;;;;18.70;99.90;;;;;;5008224;28;20023;-70
2022/08/20 07:15:34;;;;;;;;;;;18.60;99.90;;;;;;5005443;28;19972;-70
2022/08/20 07:18:02;;;;;;;;;;;18.60;99.90;;;;;;5010650;28;19933;-71
2022/08/20 07:20:30;;;;;;;;;;;18.70;99.90;;;;;;5005796;28;19925;-71
2022/08/20 07:22:57;;;;;;;;;;;18.70;99.90;;;;;;5018015;28;19929;-70
2022/08/20 07:25:26;;;;;;;;;;;18.70;99.90;;;;;;5000255;28;20432;-68
2022/08/20 07:27:53;;;;;;;;;;;18.90;99.90;;;;;;5005868;28;19932;-68
2022/08/20 07:33:05;;;;;;;;;;;18.70;99.90;;;;;;5029333;28;19922;-68
2022/08/20 07:35:31;;;;;;;;;;;18.70;99.90;;;;;;5010505;28;19961;-67
2022/08/20 07:37:58;;;;;;;;;;;18.80;99.90;;;;;;5020502;28;20012;-67
2022/08/20 07:40:27;;;;;;;;;;;18.90;99.90;;;;;;5010457;28;19956;-68
2022/08/20 07:42:54;;;;;;;;;;;18.70;99.90;;;;;;5001421;28;19933;-68
2022/08/20 07:45:21;;;;;;;;;;;18.60;99.90;;;;;;5003840;28;19925;-67
2022/08/20 07:47:48;;;;;;;;;;;18.60;99.90;;;;;;5003644;28;19930;-68
2022/08/20 07:50:16;;;;;;;;;;;18.70;99.90;;;;;;5010447;28;19925;-68
2022/08/20 07:52:44;;;;;;;;;;;18.80;99.90;;;;;;5016210;28;20352;-67
2022/08/20 07:55:11;;;;;;;;;;;18.70;99.90;;;;;;5008178;28;19925;-66
2022/08/20 07:57:39;;;;;;;;;;;18.60;99.90;;;;;;5007584;28;20344;-64
2022/08/20 08:00:08;;;;;;;;;;;18.80;99.90;;;;;;5005005;28;20397;-66
2022/08/20 08:02:35;;;;;;;;;;;19.00;99.90;;;;;;5008635;28;19969;-67
2022/08/20 08:05:02;;;;;;;;;;;19.10;99.90;;;;;;5026341;28;19976;-65
2022/08/20 08:07:29;;;;;;;;;;;19.10;99.90;;;;;;5007942;28;20603;-65
2022/08/20 08:09:56;;;;;;;;;;;18.90;99.90;;;;;;5018463;28;19925;-67
2022/08/20 08:12:23;;;;;;;;;;;18.80;99.90;;;;;;5026925;28;19930;-66
2022/08/20 08:14:54;;;;;;;;;;;18.80;99.90;;;;;;5024262;28;19925;-66
2022/08/20 08:17:21;;;;;;;;;;;19.00;99.90;;;;;;5012107;28;19926;-65
2022/08/20 08:19:49;;;;;;;;;;;19.00;99.90;;;;;;5007974;28;19983;-65
2022/08/20 08:22:17;;;;;;;;;;;19.10;99.90;;;;;;5011402;28;19925;-66
2022/08/20 08:24:45;;;;;;;;;;;19.10;99.90;;;;;;5012598;28;19975;-66
2022/08/20 08:27:13;;;;;;;;;;;19.10;99.90;;;;;;5004324;28;19925;-66
2022/08/20 08:29:39;;;;;;;;;;;19.10;99.90;;;;;;5011036;28;20736;-67
2022/08/20 08:32:08;;;;;;;;;;;19.20;99.90;;;;;;5028023;28;19926;-66
2022/08/20 08:34:36;;;;;;;;;;;19.10;99.90;;;;;;5007820;28;19929;-66
2022/08/20 08:37:03;;;;;;;;;;;19.00;99.90;;;;;;5007125;28;20344;-65
2022/08/20 08:39:30;;;;;;;;;;;19.10;99.90;;;;;;4999821;28;19925;-65
2022/08/20 08:41:57;;;;;;;;;;;19.10;99.90;;;;;;5028922;28;20021;-64
2022/08/20 08:44:26;;;;;;;;;;;19.10;99.90;;;;;;5026973;28;20409;-63
2022/08/20 08:46:55;;;;;;;;;;;19.10;99.90;;;;;;5023168;28;19925;-65
2022/08/20 08:49:26;;;;;;;;;;;19.10;99.90;;;;;;5027720;28;19925;-67
2022/08/20 08:51:56;;;;;;;;;;;19.20;99.90;;;;;;5025372;28;19929;-66
2022/08/20 08:54:24;;;;;;;;;;;19.30;99.90;;;;;;5025248;28;19925;-68
2022/08/20 08:56:52;;;;;;;;;;;19.10;99.90;;;;;;5009911;28;20393;-67
2022/08/20 08:59:19;;;;;;;;;;;19.10;99.90;;;;;;5027777;28;19929;-67
2022/08/20 09:01:47;;;;;;;;;;;19.30;99.90;;;;;;5024430;28;19980;-67
2022/08/20 09:04:15;;;;;;;;;;;19.60;99.90;;;;;;5030071;28;20385;-67
2022/08/20 09:06:43;;;;;;;;;;;19.60;99.90;;;;;;5018845;28;19975;-67
2022/08/20 09:09:15;;;;;;;;;;;19.60;99.90;;;;;;5019745;28;19926;-67
2022/08/20 09:11:46;;;;;;;;;;;19.50;99.90;;;;;;5013930;28;20035;-67
2022/08/20 09:14:13;;;;;;;;;;;19.50;99.90;;;;;;5007083;28;20015;-67
2022/08/20 09:16:39;;;;;;;;;;;19.80;99.90;;;;;;5017430;28;20060;-66
2022/08/20 09:19:06;;;;;;;;;;;19.70;99.90;;;;;;5006752;28;20015;-67
2022/08/20 09:21:33;;;;;;;;;;;19.70;99.90;;;;;;5019032;28;19933;-66
2022/08/20 09:24:01;;;;;;;;;;;19.40;99.90;;;;;;5030800;28;19979;-67
2022/08/20 09:26:28;;;;;;;;;;;19.40;99.90;;;;;;5030085;28;19926;-67
2022/08/20 09:28:54;;;;;;;;;;;19.50;99.90;;;;;;5002010;28;19929;-67
2022/08/20 09:31:23;;;;;;;;;;;19.50;99.90;;;;;;5028294;28;19932;-67
2022/08/20 09:33:49;;;;;;;;;;;19.40;99.90;;;;;;5024518;28;19925;-67
2022/08/20 09:36:16;;;;;;;;;;;19.70;99.90;;;;;;5027449;28;19926;-66
2022/08/20 09:38:43;;;;;;;;;;;19.80;99.90;;;;;;5012629;28;19977;-67
2022/08/20 09:41:11;;;;;;;;;;;20.00;99.90;;;;;;5029102;28;19972;-65
2022/08/20 09:43:38;;;;;;;;;;;20.00;99.90;;;;;;5008464;28;20397;-67
2022/08/20 09:46:05;;;;;;;;;;;20.20;99.90;;;;;;5028123;28;19977;-66
2022/08/20 09:48:32;;;;;;;;;;;20.40;99.90;;;;;;5002103;28;20374;-65
2022/08/20 09:50:58;;;;;;;;;;;20.60;99.90;;;;;;5007686;28;19936;-65
2022/08/20 09:53:25;;;;;;;;;;;20.60;99.90;;;;;;5025994;28;19987;-67
2022/08/20 09:55:53;;;;;;;;;;;20.50;99.90;;;;;;5002085;28;19929;-65
2022/08/20 09:58:23;;;;;;;;;;;20.40;99.90;;;;;;5022437;28;20400;-66
2022/08/20 10:00:50;;;;;;;;;;;20.50;99.90;;;;;;5024259;28;20396;-65
2022/08/20 10:03:17;;;;;;;;;;;20.50;99.90;;;;;;5015600;28;19925;-64
2022/08/20 10:05:44;;;;;;;;;;;20.40;99.90;;;;;;5026834;28;19972;-65
2022/08/20 10:08:11;;;;;;;;;;;20.40;99.90;;;;;;5029568;28;19932;-65
2022/08/20 10:10:38;;;;;;;;;;;20.50;99.90;;;;;;5004927;28;20080;-65
2022/08/20 10:13:05;;;;;;;;;;;20.60;99.90;;;;;;5021466;28;20297;-66
2022/08/20 10:15:33;;;;;;;;;;;20.60;99.90;;;;;;5028295;28;19929;-64
2022/08/20 10:18:04;;;;;;;;;;;20.40;99.90;;;;;;5009357;28;20282;-65
2022/08/20 10:20:31;;;;;;;;;;;20.40;99.90;;;;;;5025250;28;19925;-66
2022/08/20 10:22:58;;;;;;;;;;;20.70;99.90;;;;;;5009769;28;19930;-66
2022/08/20 10:25:24;;;;;;;;;;;20.90;99.90;;;;;;5009523;28;20028;-65
2022/08/20 10:27:51;;;;;;;;;;;21.20;99.90;;;;;;5000491;28;19930;-65
2022/08/20 10:30:18;;;;;;;;;;;21.10;99.90;;;;;;5002854;28;20470;-65
2022/08/20 10:32:46;;;;;;;;;;;21.10;99.90;;;;;;5008927;28;19930;-66
2022/08/20 10:35:13;;;;;;;;;;;21.30;99.90;;;;;;5004562;28;20425;-65
2022/08/20 10:37:40;;;;;;;;;;;21.90;99.90;;;;;;5008676;28;19938;-65
2022/08/20 10:40:07;;;;;;;;;;;21.80;99.90;;;;;;5019260;28;19926;-65
2022/08/20 10:42:34;;;;;;;;;;;22.00;99.90;;;;;;5012852;28;20351;-65
2022/08/20 10:45:01;;;;;;;;;;;21.80;99.90;;;;;;5034971;28;19925;-65
2022/08/20 10:47:29;;;;;;;;;;;22.00;99.90;;;;;;5034896;28;19930;-66
2022/08/20 10:49:58;;;;;;;;;;;22.20;99.90;;;;;;5005774;28;20348;-66
2022/08/20 10:52:25;;;;;;;;;;;22.20;99.90;;;;;;5028468;28;20461;-65
2022/08/20 10:54:51;;;;;;;;;;;22.20;99.90;;;;;;5015612;28;19930;-65
2022/08/20 10:57:20;;;;;;;;;;;22.20;99.90;;;;;;5006862;28;19980;-66
2022/08/20 10:59:48;;;;;;;;;;;22.50;99.90;;;;;;5026827;28;19961;-65
2022/08/20 11:02:15;;;;;;;;;;;22.40;99.90;;;;;;5031088;28;19932;-65
2022/08/20 11:04:42;;;;;;;;;;;22.70;99.90;;;;;;5014607;28;19925;-65
2022/08/20 11:07:15;;;;;;;;;;;23.10;99.90;;;;;;5030846;28;19925;-65
2022/08/20 11:09:43;;;;;;;;;;;22.80;99.90;;;;;;5030502;28;19925;-64
2022/08/20 11:12:09;;;;;;;;;;;22.70;99.90;;;;;;5019197;28;20337;-65
2022/08/20 11:14:36;;;;;;;;;;;22.90;99.90;;;;;;5028152;28;19975;-66
2022/08/20 11:17:03;;;;;;;;;;;23.20;99.90;;;;;;5012600;28;19935;-65
2022/08/20 11:19:30;;;;;;;;;;;23.40;99.90;;;;;;5028482;28;19926;-65
2022/08/20 11:21:57;;;;;;;;;;;23.70;99.90;;;;;;5002534;28;19929;-65
2022/08/20 11:24:26;;;;;;;;;;;24.10;99.90;;;;;;5009437;28;19925;-66
2022/08/20 11:26:53;;;;;;;;;;;23.90;99.90;;;;;;5014488;28;19925;-65
2022/08/20 11:29:21;;;;;;;;;;;23.80;99.90;;;;;;5025835;28;19980;-66
2022/08/20 11:31:48;;;;;;;;;;;23.80;99.90;;;;;;5029187;28;19981;-65
2022/08/20 11:34:15;;;;;;;;;;;23.90;99.90;;;;;;5030827;28;19925;-66
2022/08/20 11:36:42;;;;;;;;;;;24.90;99.90;;;;;;5013269;28;19925;-65
2022/08/20 11:39:09;;;;;;;;;;;26.90;99.90;;;;;;5029533;28;19930;-66
2022/08/20 11:41:37;;;;;;;;;;;26.70;99.90;;;;;;5030299;28;19956;-66
2022/08/20 11:44:04;;;;;;;;;;;27.30;99.90;;;;;;5029141;28;19929;-65
2022/08/20 11:46:31;;;;;;;;;;;28.70;99.90;;;;;;5030021;28;19926;-65
2022/08/20 11:48:58;;;;;;;;;;;27.80;99.90;;;;;;5022443;28;19991;-65
2022/08/20 11:51:25;;;;;;;;;;;27.80;99.90;;;;;;5019383;28;19925;-68
2022/08/20 11:53:52;;;;;;;;;;;27.60;99.90;;;;;;5023513;28;19925;-69
2022/08/20 11:56:19;;;;;;;;;;;29.10;99.90;;;;;;5033926;28;20340;-66
2022/08/20 11:58:47;;;;;;;;;;;30.10;99.90;;;;;;5018365;28;20032;-67
2022/08/20 12:01:14;;;;;;;;;;;29.60;99.90;;;;;;5029340;28;20360;-65
2022/08/20 12:03:41;;;;;;;;;;;31.10;99.90;;;;;;5013905;28;20401;-65
2022/08/20 12:06:07;;;;;;;;;;;32.20;99.90;;;;;;5010791;28;19978;-65
2022/08/20 12:08:34;;;;;;;;;;;30.80;99.90;;;;;;5016061;28;19993;-65
2022/08/20 12:11:02;;;;;;;;;;;29.70;99.90;;;;;;5019624;28;20028;-65
2022/08/20 12:13:30;;;;;;;;;;;29.60;99.90;;;;;;5024191;28;19936;-67
2022/08/20 12:15:58;;;;;;;;;;;30.70;99.90;;;;;;5027894;28;20410;-67
2022/08/20 12:18:25;;;;;;;;;;;30.70;99.90;;;;;;5024848;28;19975;-66
2022/08/20 12:20:51;;;;;;;;;;;31.40;99.90;;;;;;5010501;28;19929;-65
2022/08/20 12:23:18;;;;;;;;;;;32.20;99.90;;;;;;5022243;28;19929;-65
2022/08/20 12:25:45;;;;;;;;;;;31.70;99.90;;;;;;5021421;28;20344;-66
2022/08/20 12:28:12;;;;;;;;;;;31.00;99.90;;;;;;5027474;28;20420;-64
2022/08/20 12:30:39;;;;;;;;;;;30.90;99.90;;;;;;5017148;28;20349;-64
2022/08/20 12:33:07;;;;;;;;;;;30.60;99.90;;;;;;5027753;28;19929;-65
2022/08/20 12:35:36;;;;;;;;;;;30.30;99.90;;;;;;5011597;28;19926;-64
2022/08/20 12:38:03;;;;;;;;;;;29.80;99.90;;;;;;5012166;28;19925;-65
2022/08/20 12:40:30;;;;;;;;;;;30.10;99.90;;;;;;5004436;28;19977;-65
2022/08/20 12:42:57;;;;;;;;;;;31.00;99.90;;;;;;5010782;28;19984;-64
2022/08/20 12:45:23;;;;;;;;;;;30.60;99.90;;;;;;5013068;28;20336;-64
2022/08/20 12:47:50;;;;;;;;;;;30.30;99.90;;;;;;5005617;28;19930;-65
2022/08/20 12:50:19;;;;;;;;;;;30.10;99.90;;;;;;5012192;28;20345;-64
2022/08/20 12:52:46;;;;;;;;;;;31.30;99.90;;;;;;5020936;28;19929;-65
2022/08/20 12:55:14;;;;;;;;;;;31.20;99.90;;;;;;5017504;28;19952;-66
2022/08/20 12:57:42;;;;;;;;;;;30.70;99.90;;;;;;5036149;28;19925;-66
2022/08/20 13:00:10;;;;;;;;;;;30.20;99.90;;;;;;5027541;28;19925;-67
2022/08/20 13:02:39;;;;;;;;;;;30.40;99.90;;;;;;5011658;28;19929;-67
2022/08/20 13:05:06;;;;;;;;;;;31.20;99.90;;;;;;5028602;28;19925;-66
2022/08/20 13:07:35;;;;;;;;;;;31.20;99.90;;;;;;5029459;28;19933;-65
2022/08/20 13:10:02;;;;;;;;;;;30.80;99.90;;;;;;5002215;28;19930;-66
2022/08/20 13:12:29;;;;;;;;;;;31.50;99.90;;;;;;5003692;28;19929;-66
2022/08/20 13:14:55;;;;;;;;;;;31.60;99.90;;;;;;5023914;28;19926;-66
2022/08/20 13:17:22;;;;;;;;;;;32.00;99.90;;;;;;5028685;28;19925;-66
2022/08/20 13:19:49;;;;;;;;;;;31.70;99.90;;;;;;5028871;28;19929;-66
2022/08/20 13:22:16;;;;;;;;;;;32.70;99.90;;;;;;5027829;28;20401;-67
2022/08/20 13:24:44;;;;;;;;;;;33.20;99.90;;;;;;5012633;28;20304;-66
2022/08/20 13:27:13;;;;;;;;;;;32.80;99.90;;;;;;5011460;28;19984;-66
2022/08/20 13:29:45;;;;;;;;;;;32.10;99.90;;;;;;5003313;28;20439;-66
2022/08/20 13:32:12;;;;;;;;;;;31.80;99.90;;;;;;5011438;28;20364;-66
2022/08/20 13:34:38;;;;;;;;;;;31.50;99.90;;;;;;5011688;28;19930;-66
2022/08/20 13:37:11;;;;;;;;;;;32.10;99.90;;;;;;5023774;28;20362;-67
2022/08/20 13:39:38;;;;;;;;;;;32.30;99.90;;;;;;5026412;28;19976;-67
2022/08/20 13:42:07;;;;;;;;;;;31.90;99.90;;;;;;5028196;28;19926;-69
2022/08/20 13:44:33;;;;;;;;;;;32.50;99.90;;;;;;5029123;28;20344;-65
2022/08/20 13:47:00;;;;;;;;;;;32.60;99.90;;;;;;5036714;28;19925;-65
2022/08/20 13:49:27;;;;;;;;;;;32.40;99.90;;;;;;5033754;28;19944;-65
2022/08/20 13:51:54;;;;;;;;;;;32.70;99.90;;;;;;5028772;28;19984;-66
2022/08/20 13:54:21;;;;;;;;;;;32.30;99.90;;;;;;5026528;28;19930;-65
2022/08/20 13:56:48;;;;;;;;;;;32.30;99.90;;;;;;5024409;28;19925;-65
2022/08/20 13:59:16;;;;;;;;;;;32.20;99.90;;;;;;5034206;28;19933;-66
2022/08/20 14:01:42;;;;;;;;;;;32.90;99.90;;;;;;5035485;28;19930;-66
2022/08/20 14:04:09;;;;;;;;;;;32.30;99.90;;;;;;5007756;28;20368;-65
2022/08/20 14:06:36;;;;;;;;;;;32.60;99.90;;;;;;5026906;28;19926;-66
2022/08/20 14:09:03;;;;;;;;;;;32.30;99.90;;;;;;5009555;28;19955;-65
2022/08/20 14:11:29;;;;;;;;;;;32.60;99.90;;;;;;5028678;28;19929;-66
2022/08/20 14:13:56;;;;;;;;;;;32.70;99.90;;;;;;5013131;28;20390;-66
2022/08/20 14:16:24;;;;;;;;;;;32.40;99.90;;;;;;5027919;28;19926;-63
2022/08/20 14:18:51;;;;;;;;;;;31.20;99.90;;;;;;5021681;28;20321;-65
2022/08/20 14:21:18;;;;;;;;;;;31.90;99.90;;;;;;5026493;28;20407;-65
2022/08/20 14:23:45;;;;;;;;;;;32.00;99.90;;;;;;5028005;28;19926;-65
2022/08/20 14:26:11;;;;;;;;;;;32.00;99.90;;;;;;5027088;28;19945;-65
2022/08/20 14:28:38;;;;;;;;;;;33.20;99.90;;;;;;5026008;28;20375;-65